createdAt,value
2018-08-25T00:00:16.487Z,1.70
2018-08-25T00:02:44.271Z,1.93
2018-08-25T00:05:11.881Z,1.60
2018-08-25T00:07:39.520Z,1.43
2018-08-25T00:10:08.099Z,1.67
2018-08-25T00:12:35.904Z,1.80
2018-08-25T00:15:03.600Z,1.63
2018-08-25T00:17:31.163Z,1.60
2018-08-25T00:19:58.925Z,1.83
2018-08-25T00:22:26.470Z,1.70
2018-08-25T00:24:53.998Z,1.57
2018-08-25T00:27:21.637Z,1.57
2018-08-25T00:29:49.257Z,1.67
2018-08-25T00:32:16.870Z,1.80
2018-08-25T00:34:44.761Z,1.70
2018-08-25T00:37:12.507Z,1.60
2018-08-25T00:39:40.082Z,1.60
2018-08-25T00:42:07.623Z,1.60
2018-08-25T00:44:35.131Z,1.40
2018-08-25T00:47:02.869Z,1.77
2018-08-25T00:49:30.461Z,1.73
2018-08-25T00:51:58.127Z,1.43
2018-08-25T00:54:25.735Z,1.47
2018-08-25T00:56:53.275Z,1.20
2018-08-25T00:59:20.995Z,1.50
2018-08-25T01:01:48.581Z,1.73
2018-08-25T01:04:16.164Z,1.60
2018-08-25T01:06:43.712Z,1.60
2018-08-25T01:09:11.296Z,2.33
2018-08-25T01:11:38.884Z,1.67
2018-08-25T01:14:06.560Z,1.60
2018-08-25T01:16:34.200Z,1.57
2018-08-25T01:19:01.709Z,1.67
2018-08-25T01:21:29.409Z,2.03
2018-08-25T01:23:56.938Z,1.70
2018-08-25T01:26:24.519Z,1.40
2018-08-25T01:28:52.043Z,1.80
2018-08-25T01:31:19.543Z,1.53
2018-08-25T01:33:47.454Z,1.90
2018-08-25T01:36:15.060Z,1.83
2018-08-25T01:38:42.624Z,1.70
2018-08-25T01:41:10.324Z,1.97
2018-08-25T01:43:37.901Z,2.50
2018-08-25T01:46:05.418Z,2.27
2018-08-25T01:48:32.927Z,2.30
2018-08-25T01:51:00.484Z,2.33
2018-08-25T01:53:28.021Z,2.50
2018-08-25T01:55:55.603Z,2.50
2018-08-25T01:58:23.155Z,2.57
2018-08-25T02:00:50.905Z,2.20
2018-08-25T02:03:18.457Z,2.60
2018-08-25T02:05:46.004Z,1.97
2018-08-25T02:08:13.565Z,2.23
2018-08-25T02:10:41.099Z,2.40
2018-08-25T02:13:08.660Z,2.07
2018-08-25T02:15:36.183Z,1.60
2018-08-25T02:18:03.732Z,2.20
2018-08-25T02:20:31.279Z,2.27
2018-08-25T02:22:58.840Z,1.87
2018-08-25T02:25:26.395Z,1.80
2018-08-25T02:27:53.896Z,1.60
2018-08-25T02:30:21.478Z,1.80
2018-08-25T02:32:49.054Z,2.17
2018-08-25T02:35:16.617Z,1.50
2018-08-25T02:37:44.390Z,1.63
2018-08-25T02:40:11.961Z,1.63
2018-08-25T02:42:39.493Z,1.70
2018-08-25T02:45:07.039Z,1.30
2018-08-25T02:47:34.557Z,1.60
2018-08-25T02:50:02.131Z,1.60
2018-08-25T02:52:29.687Z,1.60
2018-08-25T02:54:57.256Z,1.50
2018-08-25T02:57:24.794Z,1.50
2018-08-25T02:59:52.455Z,1.63
2018-08-25T03:02:19.993Z,1.40
2018-08-25T03:04:47.556Z,1.77
2018-08-25T03:07:15.054Z,1.53
2018-08-25T03:09:42.590Z,1.40
2018-08-25T03:12:10.165Z,1.60
2018-08-25T03:14:37.682Z,1.47
2018-08-25T03:17:05.255Z,1.80
2018-08-25T03:19:32.839Z,1.70
2018-08-25T03:22:00.382Z,1.30
2018-08-25T03:24:27.961Z,1.60
2018-08-25T03:26:55.703Z,1.70
2018-08-25T03:29:23.237Z,1.67
2018-08-25T03:31:50.755Z,2.00
2018-08-25T03:34:18.315Z,1.80
2018-08-25T03:36:45.819Z,1.63
2018-08-25T03:39:13.371Z,2.23
2018-08-25T03:41:41.018Z,2.00
2018-08-25T03:44:08.584Z,1.70
2018-08-25T03:46:36.159Z,2.20
2018-08-25T03:49:03.740Z,2.13
2018-08-25T03:51:31.467Z,2.17
2018-08-25T03:53:59.015Z,2.27
2018-08-25T03:56:27.636Z,2.40
2018-08-25T03:58:55.206Z,2.10
2018-08-25T04:01:22.753Z,1.70
2018-08-25T04:03:50.319Z,2.30
2018-08-25T04:06:17.843Z,2.20
2018-08-25T04:08:45.380Z,2.10
2018-08-25T04:11:12.926Z,2.37
2018-08-25T04:13:40.499Z,2.10
2018-08-25T04:16:08.060Z,2.90
2018-08-25T04:18:35.617Z,2.27
2018-08-25T04:21:03.185Z,2.60
2018-08-25T04:23:30.740Z,2.33
2018-08-25T04:25:58.257Z,2.77
2018-08-25T04:28:25.821Z,2.80
2018-08-25T04:30:53.349Z,2.67
2018-08-25T04:33:20.952Z,2.70
2018-08-25T04:35:48.450Z,2.80
2018-08-25T04:38:15.954Z,2.83
2018-08-25T04:40:43.528Z,2.20
2018-08-25T04:43:11.192Z,2.33
2018-08-25T04:45:52.320Z,2.37
2018-08-25T04:48:19.876Z,2.30
2018-08-25T04:50:47.403Z,2.07
2018-08-25T04:53:14.980Z,2.20
2018-08-25T04:55:42.530Z,1.97
2018-08-25T04:58:10.058Z,2.23
2018-08-25T05:00:37.643Z,2.60
2018-08-25T05:03:05.169Z,2.47
2018-08-25T05:05:32.679Z,2.47
2018-08-25T05:08:00.237Z,2.87
2018-08-25T05:10:27.765Z,2.97
2018-08-25T05:12:55.328Z,2.97
2018-08-25T05:15:22.887Z,3.17
2018-08-25T05:17:50.471Z,3.10
2018-08-25T05:20:18.009Z,2.27
2018-08-25T05:22:45.554Z,2.20
2018-08-25T05:25:13.114Z,2.80
2018-08-25T05:27:40.680Z,2.97
2018-08-25T05:30:08.256Z,2.53
2018-08-25T05:32:35.791Z,2.50
2018-08-25T05:35:09.048Z,2.23
2018-08-25T05:37:36.564Z,2.10
2018-08-25T05:40:04.285Z,2.53
2018-08-25T05:42:31.842Z,2.57
2018-08-25T05:44:59.420Z,2.73
2018-08-25T05:47:27.937Z,2.60
2018-08-25T05:49:55.561Z,2.73
2018-08-25T05:52:23.529Z,2.70
2018-08-25T05:54:51.118Z,2.73
2018-08-25T05:57:18.641Z,2.50
2018-08-25T05:59:46.241Z,2.90
2018-08-25T06:02:14.436Z,2.20
2018-08-25T06:04:41.994Z,2.33
2018-08-25T06:07:09.620Z,2.10
2018-08-25T06:09:37.212Z,2.57
2018-08-25T06:12:04.836Z,3.07
2018-08-25T06:14:32.473Z,2.63
2018-08-25T06:17:00.117Z,3.03
2018-08-25T06:19:27.698Z,2.93
2018-08-25T06:21:55.295Z,2.57
2018-08-25T06:24:22.953Z,3.00
2018-08-25T06:26:50.602Z,3.10
2018-08-25T06:29:18.132Z,2.90
2018-08-25T06:31:45.753Z,2.97
2018-08-25T06:34:14.252Z,3.00
2018-08-25T06:36:41.803Z,2.97
2018-08-25T06:39:09.495Z,2.97
2018-08-25T06:41:37.077Z,3.07
2018-08-25T06:44:04.729Z,4.03
2018-08-25T06:46:32.294Z,4.00
2018-08-25T06:48:59.892Z,3.40
2018-08-25T06:51:27.536Z,3.77
2018-08-25T06:53:55.133Z,4.13
2018-08-25T06:56:22.760Z,3.63
2018-08-25T06:58:50.407Z,4.20
2018-08-25T07:01:17.930Z,3.73
2018-08-25T07:03:45.656Z,3.60
2018-08-25T07:06:13.188Z,3.87
2018-08-25T07:08:40.754Z,3.53
2018-08-25T07:11:08.443Z,3.67
2018-08-25T07:13:36.027Z,3.30
2018-08-25T07:16:03.554Z,3.57
2018-08-25T07:18:31.135Z,3.33
2018-08-25T07:20:58.680Z,3.37
2018-08-25T07:23:26.200Z,3.60
2018-08-25T07:25:53.823Z,3.47
2018-08-25T07:28:21.389Z,4.07
2018-08-25T07:30:50.058Z,4.07
2018-08-25T07:33:17.627Z,4.40
2018-08-25T07:35:45.160Z,5.17
2018-08-25T07:38:12.721Z,5.07
2018-08-25T07:40:40.262Z,5.00
2018-08-25T07:43:07.781Z,4.97
2018-08-25T07:45:35.460Z,6.23
2018-08-25T07:48:03.008Z,5.23
2018-08-25T07:50:30.600Z,6.17
2018-08-25T07:52:58.107Z,6.20
2018-08-25T07:55:25.626Z,5.60
2018-08-25T07:57:53.402Z,6.07
2018-08-25T08:00:20.912Z,5.33
2018-08-25T08:02:48.602Z,5.50
2018-08-25T08:05:16.322Z,5.67
2018-08-25T08:07:43.864Z,5.50
2018-08-25T08:10:11.585Z,5.57
2018-08-25T08:12:39.126Z,5.00
2018-08-25T08:15:08.672Z,5.33
2018-08-25T08:17:37.342Z,5.87
2018-08-25T08:20:06.030Z,4.70
2018-08-25T08:22:33.863Z,4.07
2018-08-25T08:25:01.397Z,4.43
2018-08-25T08:27:28.944Z,4.27
2018-08-25T08:29:56.519Z,4.13
2018-08-25T08:32:24.275Z,3.87
2018-08-25T08:34:51.857Z,3.67
2018-08-25T08:37:19.377Z,4.23
2018-08-25T08:39:46.943Z,3.50
2018-08-25T08:42:14.613Z,3.43
2018-08-25T08:44:42.170Z,3.20
2018-08-25T08:47:09.765Z,3.50
2018-08-25T08:49:46.456Z,3.17
2018-08-25T08:52:04.892Z,3.33
2018-08-25T08:54:32.615Z,3.63
2018-08-25T08:57:00.357Z,3.33
2018-08-25T08:59:28.044Z,3.30
2018-08-25T09:01:55.563Z,3.20
2018-08-25T09:04:23.127Z,3.60
2018-08-25T09:06:50.691Z,3.70
2018-08-25T09:09:18.233Z,2.93
2018-08-25T09:11:45.787Z,3.40
2018-08-25T09:14:13.377Z,3.70
2018-08-25T09:16:40.947Z,4.17
2018-08-25T09:19:08.490Z,3.90
2018-08-25T09:21:35.991Z,3.73
2018-08-25T09:24:03.648Z,3.20
2018-08-25T09:26:31.203Z,3.50
2018-08-25T09:28:58.714Z,3.50
2018-08-25T09:31:27.276Z,3.30
2018-08-25T09:33:54.797Z,2.83
2018-08-25T09:36:22.375Z,2.60
2018-08-25T09:38:49.875Z,2.80
2018-08-25T09:41:17.466Z,3.00
2018-08-25T09:43:45.171Z,3.10
2018-08-25T09:46:12.747Z,2.50
2018-08-25T09:48:40.273Z,1.90
2018-08-25T09:51:07.808Z,2.33
2018-08-25T09:56:09.129Z,1.90
2018-08-25T09:58:36.741Z,1.83
2018-08-25T10:01:04.337Z,1.90
2018-08-25T10:03:31.944Z,1.90
2018-08-25T10:05:59.500Z,1.80
2018-08-25T10:08:27.184Z,1.57
2018-08-25T10:10:54.825Z,1.37
2018-08-25T10:13:22.477Z,1.80
2018-08-25T10:15:50.180Z,1.90
2018-08-25T10:18:17.898Z,1.60
2018-08-25T10:20:45.641Z,1.83
2018-08-25T10:23:13.440Z,1.67
2018-08-25T10:25:41.177Z,2.00
2018-08-25T10:28:08.741Z,1.37
2018-08-25T10:30:36.288Z,1.30
2018-08-25T10:33:03.867Z,1.60
2018-08-25T10:35:31.387Z,1.70
2018-08-25T10:37:59.111Z,1.50
2018-08-25T10:40:26.979Z,1.50
2018-08-25T10:42:54.541Z,1.80
2018-08-25T10:45:22.106Z,1.83
2018-08-25T10:47:49.640Z,2.10
2018-08-25T10:50:17.273Z,1.80
2018-08-25T10:52:44.827Z,1.70
2018-08-25T10:55:12.401Z,1.90
2018-08-25T10:57:40.045Z,1.90
2018-08-25T11:00:07.701Z,1.90
2018-08-25T11:02:35.242Z,1.60
2018-08-25T11:05:02.807Z,1.77
2018-08-25T11:07:30.322Z,1.40
2018-08-25T11:09:57.867Z,1.40
2018-08-25T11:12:25.484Z,1.50
2018-08-25T11:14:53.111Z,1.37
2018-08-25T11:17:20.679Z,1.77
2018-08-25T11:19:48.357Z,1.67
2018-08-25T11:22:15.873Z,1.60
2018-08-25T11:24:43.549Z,1.47
2018-08-25T11:27:11.109Z,2.07
2018-08-25T11:29:38.655Z,1.50
2018-08-25T11:32:06.230Z,2.00
2018-08-25T11:34:33.775Z,1.80
2018-08-25T11:37:01.366Z,1.30
2018-08-25T11:39:28.928Z,1.40
2018-08-25T11:41:56.504Z,1.70
2018-08-25T11:44:24.138Z,1.80
2018-08-25T11:46:51.716Z,1.47
2018-08-25T11:49:19.300Z,1.60
2018-08-25T11:51:46.812Z,1.83
2018-08-25T11:54:14.374Z,1.47
2018-08-25T11:56:41.952Z,1.63
2018-08-25T11:59:09.582Z,1.70
2018-08-25T12:01:37.143Z,1.63
2018-08-25T12:04:04.662Z,1.50
2018-08-25T12:06:32.248Z,1.80
2018-08-25T12:08:59.792Z,1.60
2018-08-25T12:11:27.369Z,2.27
2018-08-25T12:13:54.931Z,1.40
2018-08-25T12:16:22.539Z,1.30
2018-08-25T12:18:50.046Z,1.60
2018-08-25T12:21:17.579Z,1.50
2018-08-25T12:23:45.160Z,1.47
2018-08-25T12:26:12.734Z,1.50
2018-08-25T12:28:40.249Z,1.57
2018-08-25T12:31:07.786Z,1.80
2018-08-25T12:33:35.563Z,3.20
2018-08-25T12:36:03.067Z,1.87
2018-08-25T12:38:30.716Z,1.83
2018-08-25T12:40:58.236Z,1.77
2018-08-25T12:43:25.867Z,1.70
2018-08-25T12:45:53.361Z,1.70
2018-08-25T12:48:20.916Z,2.00
2018-08-25T12:50:48.438Z,1.60
2018-08-25T12:53:16.111Z,1.80
2018-08-25T12:55:43.648Z,1.77
2018-08-25T12:58:11.228Z,1.80
2018-08-25T13:00:38.769Z,2.23
2018-08-25T13:03:06.377Z,2.90
2018-08-25T13:05:33.968Z,2.00
2018-08-25T13:08:01.474Z,1.90
2018-08-25T13:10:29.053Z,2.00
2018-08-25T13:12:56.741Z,2.43
2018-08-25T13:15:24.277Z,2.43
2018-08-25T13:17:51.839Z,2.53
2018-08-25T13:20:19.404Z,2.03
2018-08-25T13:22:46.955Z,2.13
2018-08-25T13:25:14.488Z,2.40
2018-08-25T13:27:42.055Z,1.80
2018-08-25T13:30:09.802Z,2.10
2018-08-25T13:32:37.369Z,1.60
2018-08-25T13:35:04.956Z,1.77
2018-08-25T13:37:32.491Z,1.63
2018-08-25T13:40:00.130Z,1.63
2018-08-25T13:42:27.688Z,1.80
2018-08-25T13:44:55.217Z,1.93
2018-08-25T13:47:23.004Z,1.97
2018-08-25T13:49:50.537Z,1.97
2018-08-25T13:52:18.044Z,2.07
2018-08-25T13:54:45.632Z,2.40
2018-08-25T13:57:13.166Z,2.20
2018-08-25T13:59:40.908Z,2.00
2018-08-25T14:02:08.433Z,2.33
2018-08-25T14:04:36.012Z,2.80
2018-08-25T14:07:03.522Z,2.80
2018-08-25T14:09:31.087Z,2.80
2018-08-25T14:11:58.605Z,3.13
2018-08-25T14:14:26.268Z,2.80
2018-08-25T14:16:53.770Z,2.70
2018-08-25T14:19:21.317Z,2.90
2018-08-25T14:21:48.907Z,2.97
2018-08-25T14:24:16.460Z,3.10
2018-08-25T14:26:44.012Z,3.07
2018-08-25T14:29:11.567Z,3.13
2018-08-25T14:31:39.123Z,3.13
2018-08-25T14:34:07.751Z,3.37
2018-08-25T14:36:35.276Z,3.57
2018-08-25T14:39:02.903Z,3.63
2018-08-25T14:41:30.519Z,3.33
2018-08-25T14:43:58.058Z,3.90
2018-08-25T14:46:25.559Z,3.17
2018-08-25T14:48:53.063Z,2.93
2018-08-25T14:51:20.628Z,3.40
2018-08-25T14:53:48.139Z,3.43
2018-08-25T14:56:15.789Z,3.13
2018-08-25T14:58:43.333Z,2.97
2018-08-25T15:01:10.965Z,2.57
2018-08-25T15:03:38.567Z,2.13
2018-08-25T15:06:06.122Z,2.10
2018-08-25T15:08:33.689Z,2.20
2018-08-25T15:11:01.195Z,1.97
2018-08-25T15:13:29.080Z,1.90
2018-08-25T15:15:56.539Z,1.87
2018-08-25T15:18:24.105Z,1.80
2018-08-25T15:20:51.682Z,2.10
2018-08-25T15:23:19.216Z,1.80
2018-08-25T15:25:46.754Z,1.90
2018-08-25T15:28:14.362Z,1.40
2018-08-25T15:30:41.950Z,1.33
2018-08-25T15:33:09.492Z,1.20
2018-08-25T15:35:37.046Z,1.30
2018-08-25T15:38:04.595Z,1.20
2018-08-25T15:40:32.143Z,1.00
2018-08-25T15:42:59.661Z,1.30
2018-08-25T15:45:27.226Z,1.20
2018-08-25T15:47:54.741Z,1.23
2018-08-25T15:50:22.305Z,1.00
2018-08-25T15:52:49.833Z,1.17
2018-08-25T15:55:17.486Z,1.40
2018-08-25T15:57:45.034Z,1.20
2018-08-25T16:00:12.586Z,1.10
2018-08-25T16:02:40.123Z,1.10
2018-08-25T16:05:07.688Z,1.20
2018-08-25T16:07:35.217Z,1.30
2018-08-25T16:10:02.998Z,1.03
2018-08-25T16:12:30.688Z,1.10
2018-08-25T16:14:58.190Z,1.17
2018-08-25T16:17:25.753Z,1.27
2018-08-25T16:19:53.576Z,1.33
2018-08-25T16:22:21.043Z,1.27
2018-08-25T16:24:48.561Z,1.20
2018-08-25T16:27:16.108Z,1.10
2018-08-25T16:29:43.699Z,1.50
2018-08-25T16:32:11.241Z,1.10
2018-08-25T16:34:38.779Z,1.50
2018-08-25T16:37:06.348Z,1.43
2018-08-25T16:39:33.920Z,1.10
2018-08-25T16:42:01.533Z,1.17
2018-08-25T16:44:29.067Z,1.33
2018-08-25T16:46:56.812Z,1.40
2018-08-25T16:49:24.437Z,1.00
2018-08-25T16:51:52.039Z,1.40
2018-08-25T16:54:19.581Z,1.30
2018-08-25T16:56:47.317Z,1.33
2018-08-25T16:59:14.899Z,2.07
2018-08-25T17:01:42.533Z,1.50
2018-08-25T17:04:10.066Z,1.50
2018-08-25T17:06:37.638Z,1.80
2018-08-25T17:09:05.161Z,1.57
2018-08-25T17:11:32.752Z,1.53
2018-08-25T17:14:00.417Z,1.60
2018-08-25T17:16:27.954Z,1.37
2018-08-25T17:18:55.544Z,1.40
2018-08-25T17:21:23.121Z,1.60
2018-08-25T17:23:50.673Z,1.23
2018-08-25T17:26:18.246Z,1.20
2018-08-25T17:28:45.836Z,1.20
2018-08-25T17:31:15.473Z,1.30
2018-08-25T17:33:43.042Z,1.80
2018-08-25T17:36:10.611Z,1.40
2018-08-25T17:38:38.412Z,1.33
2018-08-25T17:41:06.032Z,1.40
2018-08-25T17:43:33.660Z,1.73
2018-08-25T17:46:01.457Z,1.30
2018-08-25T17:48:30.053Z,1.30
2018-08-25T17:50:58.234Z,1.30
2018-08-25T17:53:25.751Z,1.30
2018-08-25T17:55:53.303Z,1.40
2018-08-25T17:58:20.876Z,1.10
2018-08-25T18:00:48.631Z,1.20
2018-08-25T18:03:16.222Z,1.30
2018-08-25T18:05:43.759Z,0.93
2018-08-25T18:08:11.338Z,1.20
2018-08-25T18:10:39.069Z,1.10
2018-08-25T18:13:06.645Z,1.40
2018-08-25T18:15:34.173Z,1.30
2018-08-25T18:18:01.740Z,1.20
2018-08-25T18:20:29.252Z,1.20
2018-08-25T18:22:56.814Z,1.15
2018-08-25T18:25:24.355Z,0.90
2018-08-25T18:27:51.948Z,1.07
2018-08-25T18:30:19.514Z,1.37
2018-08-25T18:32:47.082Z,1.50
2018-08-25T18:35:14.652Z,1.67
2018-08-25T18:37:42.181Z,1.43
2018-08-25T18:40:09.794Z,1.30
2018-08-25T18:42:37.346Z,1.37
2018-08-25T18:45:04.909Z,1.63
2018-08-25T18:47:32.419Z,1.57
2018-08-25T18:49:59.958Z,1.57
2018-08-25T18:52:27.665Z,1.80
2018-08-25T18:54:55.281Z,1.30
2018-08-25T18:57:22.842Z,1.53
2018-08-25T18:59:50.394Z,1.27
2018-08-25T19:02:18.305Z,1.50
2018-08-25T19:04:45.739Z,1.00
2018-08-25T19:07:13.262Z,1.20
2018-08-25T19:09:40.833Z,1.00
2018-08-25T19:12:08.578Z,1.05
2018-08-25T19:14:36.101Z,0.83
2018-08-25T19:17:03.661Z,0.83
2018-08-25T19:19:31.189Z,0.90
2018-08-25T19:21:58.762Z,1.17
2018-08-25T19:24:26.478Z,1.05
2018-08-25T19:26:53.970Z,1.30
2018-08-25T19:29:21.523Z,1.20
2018-08-25T19:31:49.100Z,1.07
2018-08-25T19:34:16.606Z,1.00
2018-08-25T19:36:44.167Z,1.00
2018-08-25T19:39:11.707Z,0.70
2018-08-25T19:41:39.396Z,0.97
2018-08-25T19:44:07.004Z,1.00
2018-08-25T19:46:34.511Z,1.00
2018-08-25T19:49:02.022Z,1.00
2018-08-25T19:51:29.802Z,0.80
2018-08-25T19:53:57.380Z,1.20
2018-08-25T19:56:24.937Z,0.73
2018-08-25T19:58:52.500Z,1.20
2018-08-25T20:01:20.006Z,0.93
2018-08-25T20:03:47.591Z,1.10
2018-08-25T20:06:15.135Z,1.00
2018-08-25T20:08:42.700Z,1.10
2018-08-25T20:11:10.290Z,1.17
2018-08-25T20:13:37.891Z,1.00
2018-08-25T20:16:05.403Z,1.07
2018-08-25T20:18:32.970Z,1.10
2018-08-25T20:21:00.557Z,1.00
2018-08-25T20:23:28.105Z,1.30
2018-08-25T20:25:55.629Z,1.30
2018-08-25T20:28:23.183Z,0.90
2018-08-25T20:30:50.780Z,1.00
2018-08-25T20:33:18.459Z,1.23
2018-08-25T20:35:46.115Z,1.10
2018-08-25T20:38:13.651Z,0.90
2018-08-25T20:40:41.219Z,0.90
2018-08-25T20:43:08.731Z,1.30
2018-08-25T20:45:36.461Z,1.20
2018-08-25T20:48:03.969Z,1.27
2018-08-25T20:50:31.561Z,1.00
2018-08-25T20:52:59.075Z,1.20
2018-08-25T20:55:26.823Z,0.97
2018-08-25T20:57:54.504Z,1.10
2018-08-25T21:00:22.153Z,1.10
2018-08-25T21:02:49.963Z,0.98
2018-08-25T21:05:17.529Z,1.00
2018-08-25T21:07:45.063Z,2.00
2018-08-25T21:10:12.804Z,1.83
2018-08-25T21:12:40.638Z,1.70
2018-08-25T21:15:08.161Z,1.77
2018-08-25T21:17:35.710Z,1.97
2018-08-25T21:20:03.325Z,1.60
2018-08-25T21:22:31.013Z,1.70
2018-08-25T21:24:58.674Z,1.60
2018-08-25T21:27:26.242Z,1.80
2018-08-25T21:29:53.996Z,1.60
2018-08-25T21:32:21.518Z,1.70
2018-08-25T21:34:49.063Z,1.40
2018-08-25T21:37:16.633Z,1.60
2018-08-25T21:39:44.149Z,1.50
2018-08-25T21:42:11.686Z,1.70
2018-08-25T21:44:39.202Z,1.70
2018-08-25T21:47:06.750Z,1.60
2018-08-25T21:49:34.317Z,1.50
2018-08-25T21:52:01.881Z,1.40
2018-08-25T21:54:29.428Z,1.43
2018-08-25T21:56:57.101Z,1.63
2018-08-25T21:59:24.707Z,1.57
2018-08-25T22:01:52.224Z,1.50
2018-08-25T22:04:19.836Z,1.60
2018-08-25T22:06:47.457Z,1.77
2018-08-25T22:09:15.180Z,1.60
2018-08-25T22:11:42.727Z,1.50
2018-08-25T22:14:10.293Z,1.60
2018-08-25T22:16:37.879Z,1.37
2018-08-25T22:19:05.423Z,1.43
2018-08-25T22:21:33.125Z,1.40
2018-08-25T22:24:00.652Z,1.40
2018-08-25T22:26:28.248Z,1.57
2018-08-25T22:28:55.781Z,1.60
2018-08-25T22:31:23.396Z,1.40
2018-08-25T22:33:50.940Z,1.83
2018-08-25T22:36:18.479Z,1.50
2018-08-25T22:38:45.996Z,1.70
2018-08-25T22:41:13.648Z,2.00
2018-08-25T22:43:41.151Z,1.77
2018-08-25T22:46:08.662Z,1.47
2018-08-25T22:48:36.222Z,1.30
2018-08-25T22:51:03.749Z,1.50
2018-08-25T22:53:31.271Z,1.93
2018-08-25T22:55:58.844Z,1.73
2018-08-25T22:58:26.384Z,1.80
2018-08-25T23:00:53.943Z,1.77
2018-08-25T23:03:21.514Z,1.90
2018-08-25T23:05:49.203Z,1.80
2018-08-25T23:08:17.171Z,1.67
2018-08-25T23:10:44.754Z,2.12
2018-08-25T23:13:12.464Z,1.90
2018-08-25T23:15:40.198Z,1.60
2018-08-25T23:18:07.883Z,1.80
2018-08-25T23:20:35.465Z,2.00
2018-08-25T23:23:03.299Z,2.30
2018-08-25T23:25:30.840Z,2.40
2018-08-25T23:27:58.603Z,2.50
2018-08-25T23:30:26.269Z,2.40
2018-08-25T23:32:53.847Z,2.30
2018-08-25T23:35:21.549Z,2.07
2018-08-25T23:37:49.265Z,2.53
2018-08-25T23:40:17.022Z,2.30
2018-08-25T23:42:44.583Z,2.30
2018-08-25T23:45:12.237Z,2.30
2018-08-25T23:47:39.839Z,2.33
2018-08-25T23:50:07.500Z,2.53
2018-08-25T23:52:35.097Z,2.30
2018-08-25T23:55:02.780Z,2.40
2018-08-25T23:57:30.357Z,2.30
2018-08-25T23:59:58.109Z,2.23
